Time;durP1;ratioP1;P1;durP2;ratioP2;P2;SDS_P1;SDS_P2;PMS_P1;PMS_P2;Temp;Humidity;BMP_temperature;BMP_pressure;BME280_temperature;BME280_humidity;BME280_pressure;Samples;Min_cycle;Max_cycle;Signal;HPM_P1;HPM_P2
2022/04/07 00:01:06;;;;;;;8.60;4.22;;;9.60;99.90;;;;;;5053574;28;20045;-69
2022/04/07 00:03:32;;;;;;;12.98;4.70;;;9.60;99.90;;;;;;5059806;28;20040;-69
2022/04/07 00:05:59;;;;;;;14.88;5.03;;;9.50;99.90;;;;;;5046418;28;20513;-70
2022/04/07 00:08:28;;;;;;;11.32;4.55;;;9.40;99.90;;;;;;5054266;28;20032;-69
2022/04/07 00:10:54;;;;;;;10.73;4.75;;;9.40;99.90;;;;;;5059089;28;20497;-69
2022/04/07 00:13:19;;;;;;;12.30;5.15;;;9.30;99.90;;;;;;5059231;28;20071;-69
2022/04/07 00:15:46;;;;;;;12.13;5.38;;;9.30;99.90;;;;;;5062465;28;20046;-69
2022/04/07 00:18:12;;;;;;;19.08;5.25;;;9.20;99.90;;;;;;5056795;28;20078;-70
2022/04/07 00:20:37;;;;;;;14.45;5.68;;;9.10;99.90;;;;;;5061491;28;20029;-71
2022/04/07 00:23:03;;;;;;;13.00;5.80;;;9.10;99.90;;;;;;5058735;28;20021;-70
2022/04/07 00:25:30;;;;;;;11.32;4.45;;;9.00;99.90;;;;;;5046915;28;20032;-70
2022/04/07 00:27:56;;;;;;;10.18;4.72;;;9.00;99.90;;;;;;5068436;28;20144;-70
2022/04/07 00:30:22;;;;;;;14.15;5.22;;;9.00;99.90;;;;;;5060818;28;20591;-70
2022/04/07 00:32:49;;;;;;;13.52;5.85;;;9.00;99.90;;;;;;5060734;28;20546;-70
2022/04/07 00:35:16;;;;;;;12.90;5.57;;;9.00;99.90;;;;;;5054468;28;20033;-70
2022/04/07 00:37:42;;;;;;;12.88;5.40;;;9.00;99.90;;;;;;5062010;28;20029;-70
2022/04/07 00:40:09;;;;;;;12.63;3.90;;;8.90;99.90;;;;;;5059047;28;20036;-71
2022/04/07 00:42:44;;;;;;;9.02;2.55;;;8.80;99.90;;;;;;5062118;28;20115;-71
2022/04/07 00:45:10;;;;;;;10.30;3.42;;;8.70;99.90;;;;;;5055824;28;20022;-70
2022/04/07 00:47:36;;;;;;;7.30;2.65;;;8.70;99.90;;;;;;5058511;28;20078;-70
2022/04/07 00:50:02;;;;;;;11.57;3.95;;;8.70;99.90;;;;;;5061172;28;20032;-69
2022/04/07 00:52:30;;;;;;;11.25;4.82;;;8.70;99.90;;;;;;5068604;28;20052;-70
2022/04/07 00:54:57;;;;;;;16.80;5.75;;;8.80;99.90;;;;;;5061267;28;20048;-70
2022/04/07 00:57:24;;;;;;;14.55;6.65;;;8.80;99.90;;;;;;5053130;28;20041;-70
2022/04/07 00:59:51;;;;;;;12.43;6.55;;;8.80;99.90;;;;;;5058977;28;20029;-69
2022/04/07 01:02:16;;;;;;;13.93;7.57;;;8.90;99.90;;;;;;5067967;28;20515;-70
2022/04/07 01:04:42;;;;;;;14.70;7.88;;;8.80;99.90;;;;;;5064630;28;20491;-69
2022/04/07 01:07:08;;;;;;;12.95;7.78;;;8.90;99.90;;;;;;5058587;28;20050;-69
2022/04/07 01:09:34;;;;;;;11.90;6.85;;;8.90;99.90;;;;;;5062964;28;20051;-69
2022/04/07 01:12:00;;;;;;;14.93;7.25;;;8.80;99.90;;;;;;5060567;28;20025;-69
2022/04/07 01:14:26;;;;;;;13.40;7.78;;;8.90;99.90;;;;;;5050893;28;20031;-69
2022/04/07 01:16:52;;;;;;;12.75;7.32;;;8.80;99.90;;;;;;5064055;28;20060;-68
2022/04/07 01:19:18;;;;;;;13.38;7.40;;;8.80;99.90;;;;;;5063151;28;20035;-68
2022/04/07 01:21:44;;;;;;;16.65;8.20;;;8.80;99.90;;;;;;5060157;28;20583;-69
2022/04/07 01:24:12;;;;;;;14.23;8.07;;;8.80;99.90;;;;;;5060222;28;20063;-69
2022/04/07 01:26:40;;;;;;;14.30;8.30;;;8.90;99.90;;;;;;5053645;28;20063;-70
2022/04/07 01:29:07;;;;;;;14.30;7.63;;;9.00;99.90;;;;;;5080270;28;20378;-69
2022/04/07 01:31:33;;;;;;;15.27;7.50;;;9.00;99.90;;;;;;5057950;28;20021;-69
2022/04/07 01:34:01;;;;;;;13.02;7.40;;;9.00;99.90;;;;;;5062321;28;20044;-69
2022/04/07 01:36:29;;;;;;;14.00;7.40;;;9.00;99.90;;;;;;5057190;28;20056;-69
2022/04/07 01:38:56;;;;;;;14.52;7.10;;;9.00;99.90;;;;;;5057191;28;20070;-69
2022/04/07 01:41:22;;;;;;;13.23;7.38;;;9.00;99.90;;;;;;5058579;28;20037;-70
2022/04/07 01:43:50;;;;;;;14.38;6.60;;;9.00;99.90;;;;;;5062225;28;20029;-70
2022/04/07 01:46:17;;;;;;;12.90;6.43;;;9.00;99.90;;;;;;5056457;28;20021;-70
2022/04/07 01:48:44;;;;;;;13.48;5.88;;;9.00;99.90;;;;;;5050573;28;20029;-70
2022/04/07 01:51:12;;;;;;;14.02;5.80;;;9.00;99.90;;;;;;5062419;28;20029;-69
2022/04/07 01:53:39;;;;;;;14.55;4.97;;;9.00;99.90;;;;;;5048797;28;20033;-70
2022/04/07 01:56:05;;;;;;;12.23;4.63;;;9.00;99.90;;;;;;5063169;28;20024;-70
2022/04/07 01:58:32;;;;;;;11.73;4.40;;;9.00;99.90;;;;;;5052481;28;20021;-69
2022/04/07 02:00:58;;;;;;;12.82;4.57;;;9.00;99.90;;;;;;5054470;28;20080;-70
2022/04/07 02:03:24;;;;;;;17.20;4.63;;;9.00;99.90;;;;;;5059168;28;20167;-70
2022/04/07 02:05:50;;;;;;;14.63;4.75;;;8.90;99.90;;;;;;5054701;28;20066;-69
2022/04/07 02:08:15;;;;;;;14.02;4.97;;;8.90;99.90;;;;;;5057241;28;20504;-69
2022/04/07 02:10:41;;;;;;;10.93;4.30;;;8.80;99.90;;;;;;5061160;28;20056;-69
2022/04/07 02:13:07;;;;;;;11.98;4.38;;;8.80;99.90;;;;;;5045540;28;20050;-70
2022/04/07 02:15:33;;;;;;;12.40;4.40;;;8.90;99.90;;;;;;5055943;28;20750;-69
2022/04/07 02:17:59;;;;;;;14.95;4.88;;;9.00;99.90;;;;;;5058819;28;20041;-70
2022/04/07 02:20:24;;;;;;;13.50;4.13;;;9.00;99.90;;;;;;5054700;28;20056;-69
2022/04/07 02:22:50;;;;;;;12.52;4.13;;;9.00;99.90;;;;;;5061549;28;20048;-70
2022/04/07 02:25:16;;;;;;;12.60;5.00;;;9.00;99.90;;;;;;5065490;28;20021;-69
2022/04/07 02:27:42;;;;;;;13.63;5.00;;;9.00;99.90;;;;;;5043657;28;20488;-69
2022/04/07 02:30:13;;;;;;;15.68;4.72;;;9.00;99.90;;;;;;5048772;28;20025;-69
2022/04/07 02:32:40;;;;;;;13.17;4.70;;;9.00;99.90;;;;;;5055700;28;20037;-69
2022/04/07 02:35:07;;;;;;;14.55;4.60;;;9.00;99.90;;;;;;5055280;28;20291;-69
2022/04/07 02:37:33;;;;;;;17.73;5.03;;;9.00;99.90;;;;;;5052054;28;20036;-69
2022/04/07 02:39:58;;;;;;;14.70;4.50;;;9.00;99.90;;;;;;5057067;28;20025;-69
2022/04/07 02:42:24;;;;;;;14.25;4.75;;;9.00;99.90;;;;;;5067536;28;20040;-69
2022/04/07 02:44:49;;;;;;;14.73;4.65;;;9.00;99.90;;;;;;5055012;28;20079;-69
2022/04/07 02:47:16;;;;;;;14.93;5.00;;;8.90;99.90;;;;;;5056928;28;20040;-68
2022/04/07 02:49:42;;;;;;;15.15;4.80;;;8.90;99.90;;;;;;5056408;28;20154;-69
2022/04/07 02:52:09;;;;;;;16.88;4.45;;;8.90;99.90;;;;;;5066557;28;20043;-69
2022/04/07 02:54:35;;;;;;;15.05;4.45;;;8.90;99.90;;;;;;5082107;28;20092;-69
2022/04/07 02:57:02;;;;;;;11.50;4.63;;;8.90;99.90;;;;;;5057541;28;21022;-70
2022/04/07 02:59:27;;;;;;;15.82;4.45;;;8.90;99.90;;;;;;5057256;28;20102;-70
2022/04/07 03:01:56;;;;;;;15.65;4.97;;;8.80;99.90;;;;;;5054647;28;20032;-69
2022/04/07 03:04:24;;;;;;;19.17;4.75;;;8.90;99.90;;;;;;5064565;28;20032;-70
2022/04/07 03:06:53;;;;;;;17.42;4.78;;;8.80;99.90;;;;;;5050827;28;20041;-69
2022/04/07 03:09:20;;;;;;;20.20;4.72;;;8.90;99.90;;;;;;5065844;28;20016;-69
2022/04/07 03:11:46;;;;;;;14.10;3.88;;;8.90;99.90;;;;;;5049464;28;20036;-70
2022/04/07 03:14:13;;;;;;;16.58;4.13;;;8.90;99.90;;;;;;5060155;28;20025;-69
2022/04/07 03:16:39;;;;;;;12.25;4.80;;;8.80;99.90;;;;;;5056469;28;20031;-70
2022/04/07 03:19:05;;;;;;;18.30;4.60;;;8.80;99.90;;;;;;5064373;28;20044;-69
2022/04/07 03:21:31;;;;;;;15.00;4.18;;;8.70;99.90;;;;;;5055905;28;20396;-69
2022/04/07 03:23:56;;;;;;;14.23;4.13;;;8.70;99.90;;;;;;5058388;28;20559;-69
2022/04/07 03:26:22;;;;;;;11.80;3.60;;;8.70;99.90;;;;;;5046947;28;20024;-69
2022/04/07 03:28:48;;;;;;;10.18;3.38;;;8.70;99.90;;;;;;5064453;28;20024;-69
2022/04/07 03:31:13;;;;;;;14.10;4.22;;;8.80;99.90;;;;;;5048399;28;20052;-70
2022/04/07 03:33:39;;;;;;;13.77;3.90;;;8.70;99.90;;;;;;5046917;28;20025;-70
2022/04/07 03:36:05;;;;;;;13.88;3.97;;;8.70;99.90;;;;;;5038080;28;20159;-69
2022/04/07 03:38:31;;;;;;;10.05;2.95;;;8.60;99.90;;;;;;5072133;28;20028;-70
2022/04/07 03:40:56;;;;;;;10.25;2.92;;;8.60;99.90;;;;;;5065005;28;20829;-69
2022/04/07 03:43:22;;;;;;;14.30;3.47;;;8.70;99.90;;;;;;5065692;28;20040;-69
2022/04/07 03:45:48;;;;;;;14.05;3.45;;;8.70;99.90;;;;;;5049901;28;20443;-70
2022/04/07 03:48:13;;;;;;;12.68;3.92;;;8.70;99.90;;;;;;5063618;28;20057;-70
2022/04/07 03:50:40;;;;;;;17.52;3.72;;;8.70;99.90;;;;;;5058112;28;20024;-69
2022/04/07 03:53:06;;;;;;;12.13;3.67;;;8.60;99.90;;;;;;5057085;28;20033;-70
2022/04/07 03:55:32;;;;;;;12.98;4.13;;;8.70;99.90;;;;;;5062244;28;20039;-69
2022/04/07 03:57:58;;;;;;;15.52;4.18;;;8.70;99.90;;;;;;5062078;28;20023;-70
2022/04/07 04:00:25;;;;;;;15.43;4.30;;;8.70;99.90;;;;;;5064500;28;20478;-67
2022/04/07 04:02:51;;;;;;;12.82;4.10;;;8.70;99.90;;;;;;5065128;28;20127;-70
2022/04/07 04:05:18;;;;;;;14.23;4.00;;;8.70;99.90;;;;;;5056176;28;20110;-69
2022/04/07 04:07:43;;;;;;;15.68;4.57;;;8.70;99.90;;;;;;5050067;28;20060;-70
2022/04/07 04:10:10;;;;;;;17.25;5.07;;;8.70;99.90;;;;;;5048671;28;20025;-70
2022/04/07 04:12:35;;;;;;;16.80;5.00;;;8.80;99.90;;;;;;5061531;28;20084;-69
2022/04/07 04:15:01;;;;;;;17.73;5.38;;;8.70;99.90;;;;;;5060484;28;20041;-69
2022/04/07 04:17:31;;;;;;;18.15;6.10;;;8.70;99.90;;;;;;5061641;28;20067;-70
2022/04/07 04:19:56;;;;;;;17.13;5.50;;;8.70;99.90;;;;;;5065634;28;20028;-70
2022/04/07 04:22:22;;;;;;;14.95;5.40;;;8.70;99.90;;;;;;5060127;28;20048;-69
2022/04/07 04:24:48;;;;;;;21.08;5.60;;;8.70;99.90;;;;;;5065854;28;20040;-69
2022/04/07 04:27:14;;;;;;;17.77;5.43;;;8.70;99.90;;;;;;5056141;28;20028;-69
2022/04/07 04:29:45;;;;;;;26.13;6.85;;;8.70;99.90;;;;;;5068855;28;20492;-69
2022/04/07 04:32:10;;;;;;;21.00;4.90;;;8.70;99.90;;;;;;5055087;28;20038;-69
2022/04/07 04:34:36;;;;;;;19.80;5.50;;;8.70;99.90;;;;;;5062854;28;20067;-70
2022/04/07 04:37:03;;;;;;;17.75;5.60;;;8.70;99.90;;;;;;5051897;28;20033;-70
2022/04/07 04:39:28;;;;;;;26.73;6.50;;;8.70;99.90;;;;;;5060425;28;20096;-70
2022/04/07 04:41:54;;;;;;;23.38;5.00;;;8.70;99.90;;;;;;5055817;28;20065;-70
2022/04/07 04:44:20;;;;;;;24.88;5.38;;;8.70;99.90;;;;;;5059937;28;20048;-70
2022/04/07 04:46:45;;;;;;;20.25;5.07;;;8.70;99.90;;;;;;5065908;28;20061;-69
2022/04/07 04:49:11;;;;;;;27.42;6.22;;;8.80;99.90;;;;;;5049448;28;20050;-69
2022/04/07 04:51:37;;;;;;;17.92;4.80;;;8.80;99.90;;;;;;5067218;28;20033;-71
2022/04/07 04:54:02;;;;;;;17.63;4.85;;;8.80;99.90;;;;;;5070147;28;20041;-70
2022/04/07 04:56:28;;;;;;;25.27;5.30;;;8.80;99.90;;;;;;5060316;28;20041;-70
2022/04/07 04:58:54;;;;;;;22.77;6.15;;;8.70;99.90;;;;;;5067874;28;20024;-70
2022/04/07 05:01:20;;;;;;;21.27;5.40;;;8.60;99.90;;;;;;5049818;28;20521;-70
2022/04/07 05:03:45;;;;;;;21.88;5.75;;;8.60;99.90;;;;;;5069250;28;20044;-70
2022/04/07 05:06:11;;;;;;;22.58;5.32;;;8.60;99.90;;;;;;5052313;28;20473;-71
2022/04/07 05:08:37;;;;;;;19.77;5.32;;;8.50;99.90;;;;;;5036950;28;20055;-72
2022/04/07 05:11:03;;;;;;;29.70;5.50;;;8.50;99.90;;;;;;5068151;28;20025;-71
2022/04/07 05:13:28;;;;;;;27.80;6.28;;;8.50;99.90;;;;;;5069803;28;20877;-71
2022/04/07 05:15:54;;;;;;;23.63;6.25;;;8.40;99.90;;;;;;5061772;28;20079;-71
2022/04/07 05:18:20;;;;;;;27.40;6.22;;;8.40;99.90;;;;;;5060685;28;20039;-71
2022/04/07 05:20:45;;;;;;;16.77;6.03;;;8.40;99.90;;;;;;5057818;28;20014;-72
2022/04/07 05:23:11;;;;;;;16.13;5.70;;;8.40;99.90;;;;;;5057949;28;20372;-71
2022/04/07 05:25:37;;;;;;;24.83;6.32;;;8.40;99.90;;;;;;5064641;28;20135;-71
2022/04/07 05:28:02;;;;;;;21.23;6.45;;;8.40;99.90;;;;;;5054446;28;20501;-71
2022/04/07 05:30:28;;;;;;;26.23;6.10;;;8.40;99.90;;;;;;5066341;28;20387;-71
2022/04/07 05:32:54;;;;;;;21.23;7.35;;;8.40;99.90;;;;;;5063826;28;20084;-71
2022/04/07 05:35:19;;;;;;;19.70;6.57;;;8.40;99.90;;;;;;5063315;28;20415;-71
2022/04/07 05:37:46;;;;;;;14.32;5.35;;;8.40;99.90;;;;;;5059288;28;20552;-71
2022/04/07 05:40:13;;;;;;;20.05;6.32;;;8.50;99.90;;;;;;5058123;28;20025;-71
2022/04/07 05:42:39;;;;;;;15.65;5.88;;;8.50;99.90;;;;;;5062499;28;20071;-71
2022/04/07 05:45:05;;;;;;;17.58;5.80;;;8.50;99.90;;;;;;5066589;28;20575;-71
2022/04/07 05:47:37;;;;;;;16.75;5.78;;;8.50;99.90;;;;;;5064330;28;20036;-71
2022/04/07 05:50:03;;;;;;;15.90;5.82;;;8.50;99.90;;;;;;5049318;28;20121;-71
2022/04/07 05:52:29;;;;;;;9.57;2.00;;;8.50;99.90;;;;;;5061752;28;20037;-71
2022/04/07 05:54:54;;;;;;;8.45;1.38;;;7.90;99.90;;;;;;5061030;28;20134;-72
2022/04/07 05:57:22;;;;;;;6.40;1.10;;;7.00;99.90;;;;;;5064549;28;20041;-72
2022/04/07 05:59:48;;;;;;;5.15;0.90;;;6.70;99.90;;;;;;5056103;28;20032;-71
2022/04/07 06:02:13;;;;;;;6.35;1.20;;;6.40;99.90;;;;;;5057375;28;20041;-71
2022/04/07 06:04:40;;;;;;;5.72;1.38;;;6.20;99.90;;;;;;5044924;28;20032;-71
2022/04/07 06:07:06;;;;;;;6.20;1.00;;;6.00;99.90;;;;;;5049643;28;20068;-71
2022/04/07 06:09:35;;;;;;;6.43;1.13;;;5.90;99.90;;;;;;5048903;28;20030;-71
2022/04/07 06:12:01;;;;;;;5.85;1.27;;;5.70;99.90;;;;;;5047994;28;20040;-71
2022/04/07 06:14:27;;;;;;;4.55;0.98;;;5.60;99.90;;;;;;5030906;28;20025;-71
2022/04/07 06:16:53;;;;;;;8.23;1.35;;;5.60;99.90;;;;;;5053965;28;20041;-71
2022/04/07 06:19:18;;;;;;;8.13;1.50;;;5.50;99.90;;;;;;5050961;28;20022;-71
2022/04/07 06:21:44;;;;;;;10.40;1.60;;;5.50;99.90;;;;;;5065567;28;20132;-71
2022/04/07 06:24:10;;;;;;;8.65;1.52;;;5.60;99.90;;;;;;5061171;28;20090;-71
2022/04/07 06:26:35;;;;;;;12.90;2.00;;;5.50;99.90;;;;;;5059911;28;20033;-71
2022/04/07 06:29:01;;;;;;;14.15;2.33;;;5.50;99.90;;;;;;5059203;28;20089;-71
2022/04/07 06:31:27;;;;;;;9.20;1.60;;;5.60;99.90;;;;;;5044981;28;20401;-71
2022/04/07 06:33:52;;;;;;;8.50;1.85;;;5.50;99.90;;;;;;5052729;28;20036;-72
2022/04/07 06:36:18;;;;;;;11.45;1.40;;;5.50;99.90;;;;;;5065569;28;20112;-72
2022/04/07 06:38:44;;;;;;;7.30;1.30;;;5.50;99.90;;;;;;5073165;28;20090;-74
2022/04/07 06:41:10;;;;;;;8.10;1.63;;;5.50;99.90;;;;;;5080969;28;20055;-73
2022/04/07 06:43:36;;;;;;;7.78;1.40;;;5.50;99.90;;;;;;5036718;28;20048;-73
2022/04/07 06:46:01;;;;;;;7.30;2.03;;;5.50;99.90;;;;;;5049551;28;20469;-73
2022/04/07 06:48:27;;;;;;;9.00;1.67;;;5.60;99.90;;;;;;5045605;28;20504;-73
2022/04/07 06:50:52;;;;;;;5.85;0.93;;;5.60;99.90;;;;;;5043908;28;20112;-73
2022/04/07 06:53:19;;;;;;;5.00;0.73;;;5.60;99.90;;;;;;5061075;28;20033;-73
2022/04/07 06:55:44;;;;;;;5.82;1.05;;;5.70;99.90;;;;;;5068843;28;20488;-73
2022/04/07 06:58:11;;;;;;;3.55;0.70;;;5.60;99.90;;;;;;5036617;28;20100;-73
2022/04/07 07:00:46;;;;;;;6.03;1.10;;;5.60;99.90;;;;;;5047575;28;20430;-73
2022/04/07 07:03:14;;;;;;;4.50;0.70;;;5.60;99.90;;;;;;5068290;28;20032;-83
2022/04/07 07:05:41;;;;;;;4.80;0.90;;;5.60;99.90;;;;;;5052762;28;20111;-76
2022/04/07 07:08:14;;;;;;;4.88;0.88;;;5.60;99.90;;;;;;5055720;28;20048;-88
2022/04/07 07:10:40;;;;;;;6.57;1.08;;;5.60;99.90;;;;;;5048067;28;20029;-74
2022/04/07 07:13:06;;;;;;;5.10;0.98;;;5.60;99.90;;;;;;5054865;28;20040;-74
2022/04/07 07:15:32;;;;;;;6.78;1.20;;;5.60;99.90;;;;;;5072321;28;20029;-73
2022/04/07 07:17:58;;;;;;;4.63;1.05;;;5.60;99.90;;;;;;5072460;28;20449;-74
2022/04/07 07:20:23;;;;;;;5.53;1.30;;;5.60;99.90;;;;;;5066316;28;20028;-75
2022/04/07 07:22:49;;;;;;;7.32;1.20;;;5.60;99.90;;;;;;5058093;28;20045;-73
2022/04/07 07:25:15;;;;;;;6.57;1.20;;;5.60;99.90;;;;;;5060559;28;20024;-73
2022/04/07 07:27:43;;;;;;;5.00;1.10;;;5.70;99.90;;;;;;5056630;28;20021;-74
2022/04/07 07:30:11;;;;;;;5.55;1.23;;;5.70;99.90;;;;;;5062081;28;20022;-73
2022/04/07 07:32:37;;;;;;;7.82;1.20;;;5.70;99.90;;;;;;5061012;28;20024;-73
2022/04/07 07:35:05;;;;;;;6.53;1.42;;;5.70;99.90;;;;;;5060801;28;20103;-73
2022/04/07 07:37:31;;;;;;;6.32;1.35;;;5.70;99.90;;;;;;5050927;28;20037;-73
2022/04/07 07:39:57;;;;;;;4.85;1.35;;;5.70;99.90;;;;;;5059249;28;20321;-72
2022/04/07 07:42:23;;;;;;;6.82;1.50;;;5.70;99.90;;;;;;5048553;28;20044;-72
2022/04/07 07:44:48;;;;;;;7.47;1.40;;;5.70;99.90;;;;;;5047291;28;20025;-73
2022/04/07 07:47:14;;;;;;;7.25;1.42;;;5.70;99.90;;;;;;5056683;28;20029;-73
2022/04/07 07:49:40;;;;;;;8.25;1.30;;;5.70;99.90;;;;;;5063377;28;20029;-73
2022/04/07 07:52:06;;;;;;;5.82;1.20;;;5.70;99.90;;;;;;5066561;28;20039;-73
2022/04/07 07:54:31;;;;;;;5.20;1.40;;;5.80;99.90;;;;;;5060942;28;20060;-72
2022/04/07 07:56:57;;;;;;;6.05;1.23;;;5.80;99.90;;;;;;5055835;28;20093;-72
2022/04/07 07:59:23;;;;;;;7.15;1.35;;;5.80;99.90;;;;;;5062853;28;20031;-73
2022/04/07 08:01:49;;;;;;;5.38;1.00;;;5.80;99.90;;;;;;5057042;28;20112;-74
2022/04/07 08:04:15;;;;;;;6.57;1.30;;;5.90;99.90;;;;;;5063730;28;20052;-74
2022/04/07 08:06:42;;;;;;;6.60;1.20;;;5.90;99.90;;;;;;5065299;28;20123;-74
2022/04/07 08:09:10;;;;;;;6.18;1.25;;;6.00;99.90;;;;;;5041611;28;20044;-74
2022/04/07 08:11:36;;;;;;;5.57;1.33;;;6.00;99.90;;;;;;5054399;28;20041;-74
2022/04/07 08:14:02;;;;;;;6.35;1.40;;;6.10;99.90;;;;;;5059152;28;20064;-74
2022/04/07 08:16:31;;;;;;;6.97;1.30;;;6.10;99.90;;;;;;5057069;28;20334;-74
2022/04/07 08:18:57;;;;;;;6.78;1.27;;;6.20;99.90;;;;;;5046639;28;20029;-74
2022/04/07 08:21:23;;;;;;;6.07;1.10;;;6.20;99.90;;;;;;5054905;28;20136;-74
2022/04/07 08:23:48;;;;;;;6.25;1.42;;;6.30;99.90;;;;;;5057309;28;20129;-74
2022/04/07 08:26:15;;;;;;;5.65;1.50;;;6.40;99.90;;;;;;5058137;28;20112;-74
2022/04/07 08:28:41;;;;;;;5.68;1.27;;;6.40;99.90;;;;;;5066745;28;20033;-72
2022/04/07 08:31:07;;;;;;;6.43;1.27;;;6.50;99.90;;;;;;5054936;28;20047;-73
2022/04/07 08:33:33;;;;;;;10.57;1.50;;;6.60;99.90;;;;;;5051541;28;20025;-73
2022/04/07 08:35:58;;;;;;;6.07;1.77;;;6.80;99.90;;;;;;5052282;28;20135;-72
2022/04/07 08:38:24;;;;;;;7.15;1.33;;;6.90;99.90;;;;;;5054303;28;20044;-70
2022/04/07 08:40:51;;;;;;;7.80;1.98;;;7.90;99.90;;;;;;5059535;28;20044;-72
2022/04/07 08:43:18;;;;;;;8.70;1.55;;;9.20;99.90;;;;;;5058626;28;20017;-72
2022/04/07 08:45:44;;;;;;;5.20;1.13;;;9.70;99.90;;;;;;5065547;28;20031;-72
2022/04/07 08:48:12;;;;;;;7.63;1.63;;;10.10;99.90;;;;;;5058106;28;20044;-70
2022/04/07 08:50:41;;;;;;;5.65;1.38;;;10.80;99.90;;;;;;5063588;28;20032;-72
2022/04/07 08:53:07;;;;;;;6.75;1.35;;;12.30;99.90;;;;;;5061140;28;20511;-71
2022/04/07 08:55:36;;;;;;;5.20;1.45;;;12.50;99.90;;;;;;5053998;28;20052;-71
2022/04/07 08:58:02;;;;;;;7.15;1.50;;;13.00;99.90;;;;;;5051891;28;20027;-71
2022/04/07 09:00:28;;;;;;;6.70;1.40;;;13.50;99.90;;;;;;5055366;28;20037;-71
2022/04/07 09:02:54;;;;;;;7.07;1.20;;;14.20;99.90;;;;;;5068702;28;20551;-70
2022/04/07 09:05:24;;;;;;;7.18;1.30;;;14.20;99.90;;;;;;5058734;28;20039;-71
2022/04/07 09:07:52;;;;;;;8.25;1.75;;;14.60;99.90;;;;;;5053927;28;20072;-71
2022/04/07 09:10:19;;;;;;;6.82;1.33;;;15.60;99.90;;;;;;5058123;28;20028;-71
2022/04/07 09:12:45;;;;;;;7.15;1.25;;;15.90;99.90;;;;;;5055186;28;20017;-71
2022/04/07 09:15:13;;;;;;;6.50;1.30;;;16.40;99.90;;;;;;5060337;28;20174;-70
2022/04/07 09:17:51;;;;;;;7.53;1.27;;;15.40;99.90;;;;;;5062239;28;20035;-71
2022/04/07 09:20:17;;;;;;;7.85;1.38;;;14.80;99.90;;;;;;5060696;28;20543;-70
2022/04/07 09:22:43;;;;;;;8.30;1.67;;;14.20;99.90;;;;;;5042106;28;20057;-69
2022/04/07 09:25:14;;;;;;;6.88;1.38;;;13.70;99.90;;;;;;5044853;28;20646;-69
2022/04/07 09:27:43;;;;;;;6.22;1.30;;;12.90;99.90;;;;;;5058403;28;20060;-70
2022/04/07 09:30:10;;;;;;;8.10;1.60;;;12.80;99.90;;;;;;5042217;28;20060;-70
2022/04/07 09:32:44;;;;;;;8.98;2.00;;;12.70;99.90;;;;;;5051252;28;20541;-70
2022/04/07 09:35:12;;;;;;;8.43;1.98;;;12.40;99.90;;;;;;5054899;28;20044;-70
2022/04/07 09:37:40;;;;;;;9.77;1.85;;;12.60;99.90;;;;;;5041895;28;20025;-70
2022/04/07 09:40:26;;;;;;;9.30;1.83;;;12.30;99.90;;;;;;5040481;28;20397;-70
2022/04/07 09:43:01;;;;;;;10.77;2.00;;;12.00;99.90;;;;;;5050269;28;20092;-70
2022/04/07 09:45:27;;;;;;;10.13;1.85;;;11.90;99.90;;;;;;5040111;28;20037;-70
2022/04/07 09:47:54;;;;;;;11.77;1.85;;;12.20;99.90;;;;;;5061128;28;20028;-69
2022/04/07 09:50:28;;;;;;;11.45;2.47;;;12.60;99.90;;;;;;5061402;28;20064;-69
2022/04/07 09:53:06;;;;;;;10.85;2.63;;;13.10;99.90;;;;;;5059171;28;20017;-70
2022/04/07 09:55:52;;;;;;;12.05;2.30;;;13.40;99.90;;;;;;5039004;28;20038;-70
2022/04/07 09:58:18;;;;;;;11.30;2.28;;;13.90;99.90;;;;;;5054278;28;20037;-69
2022/04/07 10:00:45;;;;;;;10.00;1.83;;;13.40;99.90;;;;;;5050007;28;20035;-69
2022/04/07 10:03:13;;;;;;;8.30;2.25;;;13.30;99.90;;;;;;5060235;28;20033;-70
2022/04/07 10:05:40;;;;;;;12.38;2.40;;;12.90;99.90;;;;;;5060045;28;20029;-69
2022/04/07 10:08:07;;;;;;;10.88;2.05;;;12.10;99.90;;;;;;5058794;28;20127;-69
2022/04/07 10:10:35;;;;;;;11.07;2.13;;;11.80;99.90;;;;;;5038784;28;20022;-69
2022/04/07 10:13:08;;;;;;;10.15;1.98;;;11.70;99.90;;;;;;5040250;28;20041;-69
2022/04/07 10:15:36;;;;;;;13.25;2.20;;;12.40;99.90;;;;;;5041267;28;21418;-69
2022/04/07 10:18:08;;;;;;;10.98;2.45;;;14.00;99.90;;;;;;5058286;28;20013;-69
2022/04/07 10:20:38;;;;;;;11.55;1.90;;;13.40;99.90;;;;;;5061122;28;20025;-69
2022/04/07 10:23:23;;;;;;;12.85;2.00;;;13.20;99.90;;;;;;5059882;28;20036;-69
2022/04/07 10:25:50;;;;;;;14.95;2.78;;;12.90;99.90;;;;;;5058499;28;20028;-69
2022/04/07 10:28:22;;;;;;;14.45;2.78;;;12.70;99.90;;;;;;5058509;28;20025;-68
2022/04/07 10:30:52;;;;;;;11.90;1.90;;;12.10;99.90;;;;;;5040671;28;20033;-69
2022/04/07 10:33:43;;;;;;;10.80;2.25;;;12.20;99.90;;;;;;5044437;28;20042;-69
2022/04/07 10:36:15;;;;;;;11.98;2.13;;;12.20;99.90;;;;;;5057972;28;20021;-69
2022/04/07 10:38:47;;;;;;;;;;;11.90;99.90;;;;;;5053978;28;20036;-69
2022/04/07 10:41:51;;;;;;;14.82;2.60;;;11.90;99.90;;;;;;5044420;28;19943;-69
2022/04/07 10:44:24;;;;;;;14.93;2.42;;;11.70;99.90;;;;;;5043756;28;20037;-68
2022/04/07 10:47:02;;;;;;;17.15;2.70;;;11.60;99.90;;;;;;5065262;28;20147;-70
2022/04/07 10:49:30;;;;;;;13.30;2.70;;;12.00;99.90;;;;;;5048889;28;20028;-69
2022/04/07 10:51:57;;;;;;;10.68;2.28;;;12.20;99.90;;;;;;5047744;28;20049;-69
2022/04/07 10:54:26;;;;;;;10.10;2.25;;;12.10;99.90;;;;;;5060078;28;20041;-68
2022/04/07 10:56:55;;;;;;;13.57;2.08;;;11.90;99.90;;;;;;5046588;28;20033;-69
2022/04/07 10:59:27;;;;;;;15.00;2.45;;;11.90;99.90;;;;;;5052849;28;20036;-68
2022/04/07 11:01:56;;;;;;;14.90;3.15;;;12.10;99.90;;;;;;5061658;28;20106;-69
2022/04/07 11:04:41;;;;;;;13.23;2.55;;;12.20;99.90;;;;;;5064899;28;20021;-69
2022/04/07 11:07:07;;;;;;;11.73;2.33;;;12.00;99.90;;;;;;5056405;28;20124;-69
2022/04/07 11:09:55;;;;;;;13.50;2.80;;;11.60;99.90;;;;;;5061402;28;20083;-68
2022/04/07 11:12:40;;;;;;;18.02;2.88;;;11.10;99.90;;;;;;5054097;28;20494;-69
2022/04/07 11:15:05;;;;;;;12.52;2.85;;;10.60;99.90;;;;;;5043512;28;20031;-70
2022/04/07 11:17:46;;;;;;;12.63;2.50;;;10.40;99.90;;;;;;5044914;28;20045;-70
2022/04/07 11:20:23;;;;;;;14.35;2.80;;;10.20;99.90;;;;;;5044168;28;20030;-70
2022/04/07 11:23:06;;;;;;;15.25;3.50;;;10.60;99.90;;;;;;5058885;28;20041;-70
2022/04/07 11:25:38;;;;;;;11.88;2.80;;;10.70;99.90;;;;;;5064503;28;20021;-70
2022/04/07 11:28:14;;;;;;;13.52;2.72;;;10.70;99.90;;;;;;5060859;28;20025;-69
2022/04/07 11:30:53;;;;;;;14.25;2.80;;;10.70;99.90;;;;;;5042325;28;20044;-70
2022/04/07 11:33:20;;;;;;;12.57;3.17;;;10.70;99.90;;;;;;5047816;28;20081;-70
2022/04/07 11:36:07;;;;;;;14.93;3.30;;;10.90;99.90;;;;;;5042737;28;20025;-71
2022/04/07 11:38:54;;;;;;;14.88;2.65;;;11.50;99.90;;;;;;5060603;28;20033;-69
2022/04/07 11:41:19;;;;;;;14.93;2.90;;;11.60;99.90;;;;;;5062160;28;20105;-69
2022/04/07 11:43:50;;;;;;;15.35;3.33;;;11.10;99.90;;;;;;5055454;28;20036;-70
2022/04/07 11:46:27;;;;;;;18.00;3.30;;;11.20;99.90;;;;;;5053514;28;20024;-70
2022/04/07 11:48:57;;;;;;;17.13;2.75;;;11.30;99.90;;;;;;5041496;28;20013;-69
2022/04/07 11:51:26;;;;;;;15.18;3.10;;;11.20;99.90;;;;;;5042489;28;20076;-69
2022/04/07 11:53:54;;;;;;;14.13;2.75;;;11.10;99.90;;;;;;5056060;28;20055;-69
2022/04/07 11:56:33;;;;;;;15.88;2.78;;;11.00;99.90;;;;;;5061974;28;20036;-69
2022/04/07 11:59:07;;;;;;;12.73;2.65;;;10.80;99.90;;;;;;5063151;28;20021;-69
2022/04/07 12:01:36;;;;;;;17.63;3.33;;;10.70;99.90;;;;;;5062558;28;20049;-69
2022/04/07 12:04:04;;;;;;;15.85;3.38;;;10.70;99.90;;;;;;5050969;28;20017;-69
2022/04/07 12:06:32;;;;;;;13.73;2.97;;;10.70;99.90;;;;;;5062092;28;20056;-69
2022/04/07 12:08:59;;;;;;;12.38;2.72;;;11.40;99.90;;;;;;5060416;28;20071;-69
2022/04/07 12:11:32;;;;;;;13.23;3.25;;;11.40;99.90;;;;;;5039160;28;20029;-68
2022/04/07 12:14:00;;;;;;;12.00;2.85;;;11.50;99.90;;;;;;5043824;28;20474;-69
2022/04/07 12:16:28;;;;;;;13.80;2.53;;;11.40;99.90;;;;;;5046963;28;20024;-69
2022/04/07 12:19:09;;;;;;;14.57;3.25;;;11.20;99.90;;;;;;5062061;28;20447;-69
2022/04/07 12:21:55;;;;;;;;;;;11.90;99.90;;;;;;5062861;28;20057;-69
2022/04/07 12:24:23;;;;;;;14.63;3.00;;;12.40;99.90;;;;;;5061601;28;19972;-68
2022/04/07 12:26:53;;;;;;;16.90;2.83;;;12.50;99.90;;;;;;5056605;28;20497;-69
2022/04/07 12:29:33;;;;;;;14.73;2.65;;;12.40;99.90;;;;;;5049544;28;20025;-68
2022/04/07 12:32:06;;;;;;;16.10;2.72;;;12.40;99.90;;;;;;5045688;28;20073;-69
2022/04/07 12:34:34;;;;;;;13.68;2.20;;;12.20;99.90;;;;;;5048918;28;20413;-69
2022/04/07 12:37:01;;;;;;;12.65;2.38;;;12.60;99.90;;;;;;5052598;28;20045;-68
2022/04/07 12:39:42;;;;;;;14.52;2.55;;;13.00;99.90;;;;;;5060804;28;20029;-68
2022/04/07 12:42:09;;;;;;;13.83;2.27;;;12.60;99.90;;;;;;5062800;28;20048;-69
2022/04/07 12:44:43;;;;;;;7.70;1.85;;;12.50;99.90;;;;;;5060210;28;20259;-69
2022/04/07 12:47:14;;;;;;;11.85;2.33;;;11.90;99.90;;;;;;5047785;28;20052;-68
2022/04/07 12:49:40;;;;;;;11.13;2.10;;;11.40;99.90;;;;;;5053321;28;20029;-69
2022/04/07 12:52:19;;;;;;;10.77;2.38;;;11.30;99.90;;;;;;5053849;28;20167;-69